Terminal Aerodrome Forecast
Issued by NWS Austin/San Antonio, TX

Home | Current Version | Previous Version | Text Only | Print | Product List | Glossary On
Versions: 1 2 3 4 5 6 7 8 9 10 11 12 13 14 15 16 17 18 19 20 21 22 23 24 25 26 27 28
000
FTUS44 KEWX 312023 AAA
TAFDRT
TAF AMD
KDRT 312023Z 3120/0118 12007KT 6SM -RA SCT025 BKN040
     FM312200 13015KT P6SM VCSH OVC050
     FM010400 11010KT P6SM SCT040 BKN250
     FM011000 12008KT P6SM OVC015=

USA.gov is the U.S. government's official web portal to all federal, state and local government web resources and services.